sensor_id;sensor_type;location;lat;lon;timestamp;temperature;humidity
53599;DHT22;39485;45.702;11.364;2023-10-08T00:01:53;16.80;99.90
53599;DHT22;39485;45.702;11.364;2023-10-08T00:04:21;16.80;99.90
53599;DHT22;39485;45.702;11.364;2023-10-08T00:06:47;16.70;99.90
53599;DHT22;39485;45.702;11.364;2023-10-08T00:09:12;16.70;99.90
53599;DHT22;39485;45.702;11.364;2023-10-08T00:11:40;16.70;99.90
53599;DHT22;39485;45.702;11.364;2023-10-08T00:14:06;16.70;99.90
53599;DHT22;39485;45.702;11.364;2023-10-08T00:16:39;16.70;99.90
53599;DHT22;39485;45.702;11.364;2023-10-08T00:19:08;16.60;99.90
53599;DHT22;39485;45.702;11.364;2023-10-08T00:21:34;16.60;99.90
53599;DHT22;39485;45.702;11.364;2023-10-08T00:24:03;16.60;99.90
53599;DHT22;39485;45.702;11.364;2023-10-08T00:26:33;16.60;99.90
53599;DHT22;39485;45.702;11.364;2023-10-08T00:29:04;16.60;99.90
53599;DHT22;39485;45.702;11.364;2023-10-08T00:31:44;16.60;99.90
53599;DHT22;39485;45.702;11.364;2023-10-08T00:34:11;16.70;99.90
53599;DHT22;39485;45.702;11.364;2023-10-08T00:36:43;16.70;99.90
53599;DHT22;39485;45.702;11.364;2023-10-08T00:39:10;16.70;99.90
53599;DHT22;39485;45.702;11.364;2023-10-08T00:41:44;16.70;99.90
53599;DHT22;39485;45.702;11.364;2023-10-08T00:44:11;16.70;99.90
53599;DHT22;39485;45.702;11.364;2023-10-08T00:46:42;16.60;99.90
53599;DHT22;39485;45.702;11.364;2023-10-08T00:49:15;16.70;99.90
53599;DHT22;39485;45.702;11.364;2023-10-08T00:51:56;16.70;99.90
53599;DHT22;39485;45.702;11.364;2023-10-08T00:54:35;16.70;99.90
53599;DHT22;39485;45.702;11.364;2023-10-08T00:57:16;16.70;99.90
53599;DHT22;39485;45.702;11.364;2023-10-08T00:59:46;16.70;99.90
53599;DHT22;39485;45.702;11.364;2023-10-08T01:02:22;16.70;99.90
53599;DHT22;39485;45.702;11.364;2023-10-08T01:04:54;16.70;99.90
53599;DHT22;39485;45.702;11.364;2023-10-08T01:07:21;16.70;99.90
53599;DHT22;39485;45.702;11.364;2023-10-08T01:09:47;16.70;99.90
53599;DHT22;39485;45.702;11.364;2023-10-08T01:14:47;16.60;99.90
53599;DHT22;39485;45.702;11.364;2023-10-08T01:17:15;16.60;99.90
53599;DHT22;39485;45.702;11.364;2023-10-08T01:19:45;16.60;99.90
53599;DHT22;39485;45.702;11.364;2023-10-08T01:22:19;16.60;99.90
53599;DHT22;39485;45.702;11.364;2023-10-08T01:24:50;16.50;99.90
53599;DHT22;39485;45.702;11.364;2023-10-08T01:27:19;16.50;99.90
53599;DHT22;39485;45.702;11.364;2023-10-08T01:29:53;16.50;99.90
53599;DHT22;39485;45.702;11.364;2023-10-08T01:32:21;16.50;99.90
53599;DHT22;39485;45.702;11.364;2023-10-08T01:34:48;16.40;99.90
53599;DHT22;39485;45.702;11.364;2023-10-08T01:37:15;16.40;99.90
53599;DHT22;39485;45.702;11.364;2023-10-08T01:39:45;16.30;99.90
53599;DHT22;39485;45.702;11.364;2023-10-08T01:42:12;16.40;99.90
53599;DHT22;39485;45.702;11.364;2023-10-08T01:47:21;16.30;99.90
53599;DHT22;39485;45.702;11.364;2023-10-08T01:49:51;16.30;99.90
53599;DHT22;39485;45.702;11.364;2023-10-08T01:52:23;16.30;99.90
53599;DHT22;39485;45.702;11.364;2023-10-08T01:54:49;16.30;99.90
53599;DHT22;39485;45.702;11.364;2023-10-08T01:57:16;16.30;99.90
53599;DHT22;39485;45.702;11.364;2023-10-08T01:59:42;16.30;99.90
53599;DHT22;39485;45.702;11.364;2023-10-08T02:02:09;16.30;99.90
53599;DHT22;39485;45.702;11.364;2023-10-08T02:04:36;16.30;99.90
53599;DHT22;39485;45.702;11.364;2023-10-08T02:07:05;16.30;99.90
53599;DHT22;39485;45.702;11.364;2023-10-08T02:09:36;16.30;99.90
53599;DHT22;39485;45.702;11.364;2023-10-08T02:12:03;16.30;99.90
53599;DHT22;39485;45.702;11.364;2023-10-08T02:14:29;16.30;99.90
53599;DHT22;39485;45.702;11.364;2023-10-08T02:16:58;16.30;99.90
53599;DHT22;39485;45.702;11.364;2023-10-08T02:19:27;16.30;99.90
53599;DHT22;39485;45.702;11.364;2023-10-08T02:21:54;16.20;99.90
53599;DHT22;39485;45.702;11.364;2023-10-08T02:24:21;16.20;99.90
53599;DHT22;39485;45.702;11.364;2023-10-08T02:26:52;16.20;99.90
53599;DHT22;39485;45.702;11.364;2023-10-08T02:29:19;16.10;99.90
53599;DHT22;39485;45.702;11.364;2023-10-08T02:31:44;16.10;99.90
53599;DHT22;39485;45.702;11.364;2023-10-08T02:34:10;16.10;99.90
53599;DHT22;39485;45.702;11.364;2023-10-08T02:36:38;16.10;99.90
53599;DHT22;39485;45.702;11.364;2023-10-08T02:39:06;16.00;99.90
53599;DHT22;39485;45.702;11.364;2023-10-08T02:41:43;16.00;99.90
53599;DHT22;39485;45.702;11.364;2023-10-08T02:44:15;16.00;99.90
53599;DHT22;39485;45.702;11.364;2023-10-08T02:46:43;16.00;99.90
53599;DHT22;39485;45.702;11.364;2023-10-08T02:49:16;16.00;99.90
53599;DHT22;39485;45.702;11.364;2023-10-08T02:51:47;16.00;99.90
53599;DHT22;39485;45.702;11.364;2023-10-08T02:54:16;15.90;99.90
53599;DHT22;39485;45.702;11.364;2023-10-08T02:56:51;15.90;99.90
53599;DHT22;39485;45.702;11.364;2023-10-08T02:59:20;15.90;99.90
53599;DHT22;39485;45.702;11.364;2023-10-08T03:01:49;15.90;99.90
53599;DHT22;39485;45.702;11.364;2023-10-08T03:04:21;15.90;99.90
53599;DHT22;39485;45.702;11.364;2023-10-08T03:06:50;15.90;99.90
53599;DHT22;39485;45.702;11.364;2023-10-08T03:09:20;15.90;99.90
53599;DHT22;39485;45.702;11.364;2023-10-08T03:11:49;15.80;99.90
53599;DHT22;39485;45.702;11.364;2023-10-08T03:14:16;15.80;99.90
53599;DHT22;39485;45.702;11.364;2023-10-08T03:16:50;15.80;99.90
53599;DHT22;39485;45.702;11.364;2023-10-08T03:19:17;15.80;99.90
53599;DHT22;39485;45.702;11.364;2023-10-08T03:21:48;15.80;99.90
53599;DHT22;39485;45.702;11.364;2023-10-08T03:24:18;15.80;99.90
53599;DHT22;39485;45.702;11.364;2023-10-08T03:27:03;15.80;99.90
53599;DHT22;39485;45.702;11.364;2023-10-08T03:29:41;15.80;99.90
53599;DHT22;39485;45.702;11.364;2023-10-08T03:32:14;15.80;99.90
53599;DHT22;39485;45.702;11.364;2023-10-08T03:34:48;15.70;99.90
53599;DHT22;39485;45.702;11.364;2023-10-08T03:37:16;15.70;99.90
53599;DHT22;39485;45.702;11.364;2023-10-08T03:39:55;15.70;99.90
53599;DHT22;39485;45.702;11.364;2023-10-08T03:42:33;15.70;99.90
53599;DHT22;39485;45.702;11.364;2023-10-08T03:45:06;15.70;99.90
53599;DHT22;39485;45.702;11.364;2023-10-08T03:47:41;15.70;99.90
53599;DHT22;39485;45.702;11.364;2023-10-08T03:50:12;15.70;99.90
53599;DHT22;39485;45.702;11.364;2023-10-08T03:52:42;15.70;99.90
53599;DHT22;39485;45.702;11.364;2023-10-08T03:55:09;15.70;99.90
53599;DHT22;39485;45.702;11.364;2023-10-08T03:57:44;15.70;99.90
53599;DHT22;39485;45.702;11.364;2023-10-08T04:00:14;15.60;99.90
53599;DHT22;39485;45.702;11.364;2023-10-08T04:02:57;15.60;99.90
53599;DHT22;39485;45.702;11.364;2023-10-08T04:05:27;15.60;99.90
53599;DHT22;39485;45.702;11.364;2023-10-08T04:07:58;15.60;99.90
53599;DHT22;39485;45.702;11.364;2023-10-08T04:10:23;15.60;99.90
53599;DHT22;39485;45.702;11.364;2023-10-08T04:13:24;15.60;99.90
53599;DHT22;39485;45.702;11.364;2023-10-08T04:15:50;15.60;99.90
53599;DHT22;39485;45.702;11.364;2023-10-08T04:18:16;15.60;99.90
53599;DHT22;39485;45.702;11.364;2023-10-08T04:20:41;15.60;99.90
53599;DHT22;39485;45.702;11.364;2023-10-08T04:23:26;15.60;99.90
53599;DHT22;39485;45.702;11.364;2023-10-08T04:25:51;15.50;99.90
53599;DHT22;39485;45.702;11.364;2023-10-08T04:28:20;15.60;99.90
53599;DHT22;39485;45.702;11.364;2023-10-08T04:30:47;15.50;99.90
53599;DHT22;39485;45.702;11.364;2023-10-08T04:33:14;15.50;99.90
53599;DHT22;39485;45.702;11.364;2023-10-08T04:35:44;15.50;99.90
53599;DHT22;39485;45.702;11.364;2023-10-08T04:38:27;15.50;99.90
53599;DHT22;39485;45.702;11.364;2023-10-08T04:40:54;15.60;99.90
53599;DHT22;39485;45.702;11.364;2023-10-08T04:43:22;15.60;99.90
53599;DHT22;39485;45.702;11.364;2023-10-08T04:45:54;15.60;99.90
53599;DHT22;39485;45.702;11.364;2023-10-08T04:48:22;15.60;99.90
53599;DHT22;39485;45.702;11.364;2023-10-08T04:50:58;15.60;99.90
53599;DHT22;39485;45.702;11.364;2023-10-08T04:53:28;15.60;99.90
53599;DHT22;39485;45.702;11.364;2023-10-08T04:56:01;15.60;99.90
53599;DHT22;39485;45.702;11.364;2023-10-08T04:58:46;15.60;99.90
53599;DHT22;39485;45.702;11.364;2023-10-08T05:01:21;15.60;99.90
53599;DHT22;39485;45.702;11.364;2023-10-08T05:03:55;15.60;99.90
53599;DHT22;39485;45.702;11.364;2023-10-08T05:06:28;15.50;99.90
53599;DHT22;39485;45.702;11.364;2023-10-08T05:09:14;15.50;99.90
53599;DHT22;39485;45.702;11.364;2023-10-08T05:11:47;15.50;99.90
53599;DHT22;39485;45.702;11.364;2023-10-08T05:14:25;15.50;99.90
53599;DHT22;39485;45.702;11.364;2023-10-08T05:17:14;15.50;99.90
53599;DHT22;39485;45.702;11.364;2023-10-08T05:19:46;15.50;99.90
53599;DHT22;39485;45.702;11.364;2023-10-08T05:22:45;15.40;99.90
53599;DHT22;39485;45.702;11.364;2023-10-08T05:25:21;15.40;99.90
53599;DHT22;39485;45.702;11.364;2023-10-08T05:27:46;15.40;99.90
53599;DHT22;39485;45.702;11.364;2023-10-08T05:32:45;15.40;99.90
53599;DHT22;39485;45.702;11.364;2023-10-08T05:35:33;15.50;99.90
53599;DHT22;39485;45.702;11.364;2023-10-08T05:38:19;15.50;99.90
53599;DHT22;39485;45.702;11.364;2023-10-08T05:40:49;15.50;99.90
53599;DHT22;39485;45.702;11.364;2023-10-08T05:43:43;15.50;99.90
53599;DHT22;39485;45.702;11.364;2023-10-08T05:46:13;15.60;99.90
53599;DHT22;39485;45.702;11.364;2023-10-08T05:49:05;15.60;99.90
53599;DHT22;39485;45.702;11.364;2023-10-08T05:51:35;15.60;99.90
53599;DHT22;39485;45.702;11.364;2023-10-08T05:54:14;15.60;99.90
53599;DHT22;39485;45.702;11.364;2023-10-08T05:57:00;15.60;99.90
53599;DHT22;39485;45.702;11.364;2023-10-08T05:59:46;15.60;99.90
53599;DHT22;39485;45.702;11.364;2023-10-08T06:04:59;15.70;99.90
53599;DHT22;39485;45.702;11.364;2023-10-08T06:07:48;15.70;99.90
53599;DHT22;39485;45.702;11.364;2023-10-08T06:10:21;15.80;99.90
53599;DHT22;39485;45.702;11.364;2023-10-08T06:13:01;15.80;99.90
53599;DHT22;39485;45.702;11.364;2023-10-08T06:15:38;15.90;99.90
53599;DHT22;39485;45.702;11.364;2023-10-08T06:18:28;15.90;99.90
53599;DHT22;39485;45.702;11.364;2023-10-08T06:20:55;15.90;99.90
53599;DHT22;39485;45.702;11.364;2023-10-08T06:23:22;16.00;99.90
53599;DHT22;39485;45.702;11.364;2023-10-08T06:25:52;16.00;99.90
53599;DHT22;39485;45.702;11.364;2023-10-08T06:28:26;16.00;99.90
53599;DHT22;39485;45.702;11.364;2023-10-08T06:30:54;16.10;99.90
53599;DHT22;39485;45.702;11.364;2023-10-08T06:33:21;16.20;99.90
53599;DHT22;39485;45.702;11.364;2023-10-08T06:35:48;16.20;99.90
53599;DHT22;39485;45.702;11.364;2023-10-08T06:38:44;16.30;99.90
53599;DHT22;39485;45.702;11.364;2023-10-08T06:41:14;16.40;99.90
53599;DHT22;39485;45.702;11.364;2023-10-08T06:43:45;16.40;99.90
53599;DHT22;39485;45.702;11.364;2023-10-08T06:46:18;16.50;99.90
53599;DHT22;39485;45.702;11.364;2023-10-08T06:48:48;16.60;99.90
53599;DHT22;39485;45.702;11.364;2023-10-08T06:51:15;16.70;99.90
53599;DHT22;39485;45.702;11.364;2023-10-08T06:53:47;16.80;99.90
53599;DHT22;39485;45.702;11.364;2023-10-08T06:56:16;16.90;99.90
53599;DHT22;39485;45.702;11.364;2023-10-08T06:58:44;16.90;99.90
53599;DHT22;39485;45.702;11.364;2023-10-08T07:01:19;17.00;99.90
53599;DHT22;39485;45.702;11.364;2023-10-08T07:03:54;17.10;99.90
53599;DHT22;39485;45.702;11.364;2023-10-08T07:06:29;17.20;99.90
53599;DHT22;39485;45.702;11.364;2023-10-08T07:08:59;17.30;99.90
53599;DHT22;39485;45.702;11.364;2023-10-08T07:11:26;17.40;99.90
53599;DHT22;39485;45.702;11.364;2023-10-08T07:13:52;17.50;99.90
53599;DHT22;39485;45.702;11.364;2023-10-08T07:16:19;17.60;99.90
53599;DHT22;39485;45.702;11.364;2023-10-08T07:18:46;17.70;99.90
53599;DHT22;39485;45.702;11.364;2023-10-08T07:21:20;17.80;99.90
53599;DHT22;39485;45.702;11.364;2023-10-08T07:23:54;17.90;99.90
53599;DHT22;39485;45.702;11.364;2023-10-08T07:26:28;18.00;99.90
53599;DHT22;39485;45.702;11.364;2023-10-08T07:29:06;18.20;99.90
53599;DHT22;39485;45.702;11.364;2023-10-08T07:31:39;18.40;99.90
53599;DHT22;39485;45.702;11.364;2023-10-08T07:34:07;18.50;99.90
53599;DHT22;39485;45.702;11.364;2023-10-08T07:36:51;18.70;99.90
53599;DHT22;39485;45.702;11.364;2023-10-08T07:39:18;18.90;99.90
53599;DHT22;39485;45.702;11.364;2023-10-08T07:41:57;18.90;99.90
53599;DHT22;39485;45.702;11.364;2023-10-08T07:44:25;19.00;99.90
53599;DHT22;39485;45.702;11.364;2023-10-08T07:46:52;19.00;99.90
53599;DHT22;39485;45.702;11.364;2023-10-08T07:49:20;19.00;99.90
53599;DHT22;39485;45.702;11.364;2023-10-08T07:51:48;19.00;99.90
53599;DHT22;39485;45.702;11.364;2023-10-08T07:54:24;19.00;99.90
53599;DHT22;39485;45.702;11.364;2023-10-08T07:56:50;19.00;99.90
53599;DHT22;39485;45.702;11.364;2023-10-08T07:59:38;19.00;99.90
53599;DHT22;39485;45.702;11.364;2023-10-08T08:02:05;19.00;99.90
53599;DHT22;39485;45.702;11.364;2023-10-08T08:04:38;19.00;99.90
53599;DHT22;39485;45.702;11.364;2023-10-08T08:07:06;19.10;99.90
53599;DHT22;39485;45.702;11.364;2023-10-08T08:09:32;19.10;99.90
53599;DHT22;39485;45.702;11.364;2023-10-08T08:12:05;19.20;99.90
53599;DHT22;39485;45.702;11.364;2023-10-08T08:14:37;19.20;99.90
53599;DHT22;39485;45.702;11.364;2023-10-08T08:17:06;19.20;99.90
53599;DHT22;39485;45.702;11.364;2023-10-08T08:19:45;19.30;99.90
53599;DHT22;39485;45.702;11.364;2023-10-08T08:22:16;19.40;99.90
53599;DHT22;39485;45.702;11.364;2023-10-08T08:24:50;19.40;99.90
53599;DHT22;39485;45.702;11.364;2023-10-08T08:27:20;19.50;99.90
53599;DHT22;39485;45.702;11.364;2023-10-08T08:29:57;19.50;99.90
53599;DHT22;39485;45.702;11.364;2023-10-08T08:32:38;19.60;99.90
53599;DHT22;39485;45.702;11.364;2023-10-08T08:35:11;19.60;99.90
53599;DHT22;39485;45.702;11.364;2023-10-08T08:37:37;19.70;99.90
53599;DHT22;39485;45.702;11.364;2023-10-08T08:40:07;19.80;99.90
53599;DHT22;39485;45.702;11.364;2023-10-08T08:42:48;19.80;99.90
53599;DHT22;39485;45.702;11.364;2023-10-08T08:45:22;19.80;99.90
53599;DHT22;39485;45.702;11.364;2023-10-08T08:47:50;19.90;99.90
53599;DHT22;39485;45.702;11.364;2023-10-08T08:50:17;19.90;99.90
53599;DHT22;39485;45.702;11.364;2023-10-08T08:52:43;19.90;99.90
53599;DHT22;39485;45.702;11.364;2023-10-08T08:55:11;20.00;99.90
53599;DHT22;39485;45.702;11.364;2023-10-08T08:57:47;20.00;99.90
53599;DHT22;39485;45.702;11.364;2023-10-08T09:00:14;20.10;99.90
53599;DHT22;39485;45.702;11.364;2023-10-08T09:02:42;20.00;99.90
53599;DHT22;39485;45.702;11.364;2023-10-08T09:05:10;20.10;99.90
53599;DHT22;39485;45.702;11.364;2023-10-08T09:10:20;20.20;99.90
53599;DHT22;39485;45.702;11.364;2023-10-08T09:12:51;20.20;99.90
53599;DHT22;39485;45.702;11.364;2023-10-08T09:15:17;20.20;99.90
53599;DHT22;39485;45.702;11.364;2023-10-08T09:17:44;20.30;99.90
53599;DHT22;39485;45.702;11.364;2023-10-08T09:20:10;20.30;99.90
53599;DHT22;39485;45.702;11.364;2023-10-08T09:22:37;20.40;99.90
53599;DHT22;39485;45.702;11.364;2023-10-08T09:25:03;20.40;99.90
53599;DHT22;39485;45.702;11.364;2023-10-08T09:27:33;20.50;99.90
53599;DHT22;39485;45.702;11.364;2023-10-08T09:29:59;20.60;99.90
53599;DHT22;39485;45.702;11.364;2023-10-08T09:32:33;20.70;99.90
53599;DHT22;39485;45.702;11.364;2023-10-08T09:35:00;20.70;99.90
53599;DHT22;39485;45.702;11.364;2023-10-08T09:37:26;20.80;99.90
53599;DHT22;39485;45.702;11.364;2023-10-08T09:39:52;20.80;99.90
53599;DHT22;39485;45.702;11.364;2023-10-08T09:42:19;20.90;99.90
53599;DHT22;39485;45.702;11.364;2023-10-08T09:44:48;20.90;99.90
53599;DHT22;39485;45.702;11.364;2023-10-08T09:47:20;21.00;99.90
53599;DHT22;39485;45.702;11.364;2023-10-08T09:50:01;21.00;99.90
53599;DHT22;39485;45.702;11.364;2023-10-08T09:52:39;21.10;99.90
53599;DHT22;39485;45.702;11.364;2023-10-08T09:55:09;21.20;99.90
53599;DHT22;39485;45.702;11.364;2023-10-08T09:57:36;21.20;99.90
53599;DHT22;39485;45.702;11.364;2023-10-08T10:00:04;21.30;99.90
53599;DHT22;39485;45.702;11.364;2023-10-08T10:02:32;21.40;99.90
53599;DHT22;39485;45.702;11.364;2023-10-08T10:04:59;21.40;99.90
53599;DHT22;39485;45.702;11.364;2023-10-08T10:07:26;21.50;99.90
53599;DHT22;39485;45.702;11.364;2023-10-08T10:09:54;21.60;99.90
53599;DHT22;39485;45.702;11.364;2023-10-08T10:12:25;21.60;99.90
53599;DHT22;39485;45.702;11.364;2023-10-08T10:14:55;21.70;99.90
53599;DHT22;39485;45.702;11.364;2023-10-08T10:17:25;21.80;99.90
53599;DHT22;39485;45.702;11.364;2023-10-08T10:20:02;21.80;99.90
53599;DHT22;39485;45.702;11.364;2023-10-08T10:22:32;21.90;99.90
53599;DHT22;39485;45.702;11.364;2023-10-08T10:24:59;22.00;99.90
53599;DHT22;39485;45.702;11.364;2023-10-08T10:27:42;22.00;99.90
53599;DHT22;39485;45.702;11.364;2023-10-08T10:30:08;22.00;99.90
53599;DHT22;39485;45.702;11.364;2023-10-08T10:32:37;22.10;99.90
53599;DHT22;39485;45.702;11.364;2023-10-08T10:35:03;22.10;99.90
53599;DHT22;39485;45.702;11.364;2023-10-08T10:37:32;22.10;99.90
53599;DHT22;39485;45.702;11.364;2023-10-08T10:40:07;22.10;99.90
53599;DHT22;39485;45.702;11.364;2023-10-08T10:42:39;22.20;99.90
53599;DHT22;39485;45.702;11.364;2023-10-08T10:45:17;22.20;99.90
53599;DHT22;39485;45.702;11.364;2023-10-08T10:48:02;22.20;99.90
53599;DHT22;39485;45.702;11.364;2023-10-08T10:50:41;22.30;99.90
53599;DHT22;39485;45.702;11.364;2023-10-08T10:53:25;22.40;99.90
53599;DHT22;39485;45.702;11.364;2023-10-08T10:55:52;22.50;99.90
53599;DHT22;39485;45.702;11.364;2023-10-08T10:58:25;22.50;99.90
53599;DHT22;39485;45.702;11.364;2023-10-08T11:00:53;22.60;99.90
53599;DHT22;39485;45.702;11.364;2023-10-08T11:03:24;22.60;99.90
53599;DHT22;39485;45.702;11.364;2023-10-08T11:06:00;22.70;99.90
53599;DHT22;39485;45.702;11.364;2023-10-08T11:08:31;22.70;99.90
53599;DHT22;39485;45.702;11.364;2023-10-08T11:11:00;22.80;99.90
53599;DHT22;39485;45.702;11.364;2023-10-08T11:13:32;22.80;99.90
53599;DHT22;39485;45.702;11.364;2023-10-08T11:16:07;22.90;99.90
53599;DHT22;39485;45.702;11.364;2023-10-08T11:18:35;22.90;99.90
53599;DHT22;39485;45.702;11.364;2023-10-08T11:21:09;23.00;99.90
53599;DHT22;39485;45.702;11.364;2023-10-08T11:23:48;23.00;99.90
53599;DHT22;39485;45.702;11.364;2023-10-08T11:26:26;23.00;99.90
53599;DHT22;39485;45.702;11.364;2023-10-08T11:29:01;23.10;99.90
53599;DHT22;39485;45.702;11.364;2023-10-08T11:31:29;23.10;99.90
53599;DHT22;39485;45.702;11.364;2023-10-08T11:34:04;23.20;99.90
53599;DHT22;39485;45.702;11.364;2023-10-08T11:36:38;23.20;99.90
53599;DHT22;39485;45.702;11.364;2023-10-08T11:39:24;23.30;99.90
53599;DHT22;39485;45.702;11.364;2023-10-08T11:41:59;23.40;99.90
53599;DHT22;39485;45.702;11.364;2023-10-08T11:44:30;23.40;99.90
53599;DHT22;39485;45.702;11.364;2023-10-08T11:46:56;23.40;99.90
53599;DHT22;39485;45.702;11.364;2023-10-08T11:49:30;23.50;99.90
53599;DHT22;39485;45.702;11.364;2023-10-08T11:52:01;23.50;99.90
53599;DHT22;39485;45.702;11.364;2023-10-08T11:54:27;23.50;99.90
53599;DHT22;39485;45.702;11.364;2023-10-08T11:56:53;23.60;99.90
53599;DHT22;39485;45.702;11.364;2023-10-08T11:59:20;23.60;99.90
53599;DHT22;39485;45.702;11.364;2023-10-08T12:01:50;23.60;99.90
53599;DHT22;39485;45.702;11.364;2023-10-08T12:04:16;23.70;99.90
53599;DHT22;39485;45.702;11.364;2023-10-08T12:06:43;23.70;99.90
53599;DHT22;39485;45.702;11.364;2023-10-08T12:09:18;23.80;99.90
53599;DHT22;39485;45.702;11.364;2023-10-08T12:11:47;23.80;99.90
53599;DHT22;39485;45.702;11.364;2023-10-08T12:14:13;23.90;99.90
53599;DHT22;39485;45.702;11.364;2023-10-08T12:16:41;23.90;99.90
53599;DHT22;39485;45.702;11.364;2023-10-08T12:19:07;24.00;99.90
53599;DHT22;39485;45.702;11.364;2023-10-08T12:21:42;24.00;99.90
53599;DHT22;39485;45.702;11.364;2023-10-08T12:24:11;24.00;99.90
53599;DHT22;39485;45.702;11.364;2023-10-08T12:26:38;24.10;99.90
53599;DHT22;39485;45.702;11.364;2023-10-08T12:29:14;24.20;99.90
53599;DHT22;39485;45.702;11.364;2023-10-08T12:31:40;24.20;99.90
53599;DHT22;39485;45.702;11.364;2023-10-08T12:34:06;24.20;99.90
53599;DHT22;39485;45.702;11.364;2023-10-08T12:36:32;24.30;99.90
53599;DHT22;39485;45.702;11.364;2023-10-08T12:39:02;24.30;99.90
53599;DHT22;39485;45.702;11.364;2023-10-08T12:41:40;24.40;99.90
53599;DHT22;39485;45.702;11.364;2023-10-08T12:44:06;24.40;99.90
53599;DHT22;39485;45.702;11.364;2023-10-08T12:46:34;24.50;99.90
53599;DHT22;39485;45.702;11.364;2023-10-08T12:48:59;24.50;99.90
53599;DHT22;39485;45.702;11.364;2023-10-08T12:51:27;24.50;99.90
53599;DHT22;39485;45.702;11.364;2023-10-08T12:53:57;24.60;99.90
53599;DHT22;39485;45.702;11.364;2023-10-08T12:56:33;24.60;99.90
53599;DHT22;39485;45.702;11.364;2023-10-08T12:59:04;24.60;99.90
53599;DHT22;39485;45.702;11.364;2023-10-08T13:01:35;24.70;99.90
53599;DHT22;39485;45.702;11.364;2023-10-08T13:04:02;24.70;99.90
53599;DHT22;39485;45.702;11.364;2023-10-08T13:06:33;24.70;99.90
53599;DHT22;39485;45.702;11.364;2023-10-08T13:09:03;24.80;99.90
53599;DHT22;39485;45.702;11.364;2023-10-08T13:11:34;24.90;99.90
53599;DHT22;39485;45.702;11.364;2023-10-08T13:14:00;24.90;99.90
53599;DHT22;39485;45.702;11.364;2023-10-08T13:16:27;24.90;99.90
53599;DHT22;39485;45.702;11.364;2023-10-08T13:19:03;25.00;99.90
53599;DHT22;39485;45.702;11.364;2023-10-08T13:21:29;25.00;99.90
53599;DHT22;39485;45.702;11.364;2023-10-08T13:23:57;25.00;99.90
53599;DHT22;39485;45.702;11.364;2023-10-08T13:26:25;25.00;99.90
53599;DHT22;39485;45.702;11.364;2023-10-08T13:28:56;25.00;99.90
53599;DHT22;39485;45.702;11.364;2023-10-08T13:31:23;25.10;99.90
53599;DHT22;39485;45.702;11.364;2023-10-08T13:33:50;25.10;99.90
53599;DHT22;39485;45.702;11.364;2023-10-08T13:36:18;25.20;99.90
53599;DHT22;39485;45.702;11.364;2023-10-08T13:38:44;25.20;99.90
53599;DHT22;39485;45.702;11.364;2023-10-08T13:41:11;25.20;99.90
53599;DHT22;39485;45.702;11.364;2023-10-08T13:43:44;25.20;99.90
53599;DHT22;39485;45.702;11.364;2023-10-08T13:46:17;25.20;99.90
53599;DHT22;39485;45.702;11.364;2023-10-08T13:48:45;25.20;99.90
53599;DHT22;39485;45.702;11.364;2023-10-08T13:51:14;25.20;99.90
53599;DHT22;39485;45.702;11.364;2023-10-08T13:53:41;25.30;99.90
53599;DHT22;39485;45.702;11.364;2023-10-08T13:56:11;25.20;99.90
53599;DHT22;39485;45.702;11.364;2023-10-08T13:58:37;25.20;99.90
53599;DHT22;39485;45.702;11.364;2023-10-08T14:01:11;25.20;99.90
53599;DHT22;39485;45.702;11.364;2023-10-08T14:03:48;25.20;99.90
53599;DHT22;39485;45.702;11.364;2023-10-08T14:06:15;25.30;99.90
53599;DHT22;39485;45.702;11.364;2023-10-08T14:08:43;25.20;99.90
53599;DHT22;39485;45.702;11.364;2023-10-08T14:11:14;25.20;99.90
53599;DHT22;39485;45.702;11.364;2023-10-08T14:13:39;25.20;99.90
53599;DHT22;39485;45.702;11.364;2023-10-08T14:16:08;25.20;99.90
53599;DHT22;39485;45.702;11.364;2023-10-08T14:18:37;25.20;99.90
53599;DHT22;39485;45.702;11.364;2023-10-08T14:21:09;25.20;99.90
53599;DHT22;39485;45.702;11.364;2023-10-08T14:23:37;25.20;99.90
53599;DHT22;39485;45.702;11.364;2023-10-08T14:26:09;25.20;99.90
53599;DHT22;39485;45.702;11.364;2023-10-08T14:28:35;25.20;99.90
53599;DHT22;39485;45.702;11.364;2023-10-08T14:31:17;25.20;99.90
53599;DHT22;39485;45.702;11.364;2023-10-08T14:33:44;25.20;99.90
53599;DHT22;39485;45.702;11.364;2023-10-08T14:36:24;25.20;99.90
53599;DHT22;39485;45.702;11.364;2023-10-08T14:39:09;25.20;99.90
53599;DHT22;39485;45.702;11.364;2023-10-08T14:41:53;25.20;99.90
53599;DHT22;39485;45.702;11.364;2023-10-08T14:44:38;25.10;99.90
53599;DHT22;39485;45.702;11.364;2023-10-08T14:47:04;25.10;99.90
53599;DHT22;39485;45.702;11.364;2023-10-08T14:49:30;25.10;99.90
53599;DHT22;39485;45.702;11.364;2023-10-08T14:51:58;25.10;99.90
53599;DHT22;39485;45.702;11.364;2023-10-08T14:54:24;25.00;99.90
53599;DHT22;39485;45.702;11.364;2023-10-08T14:56:50;25.10;99.90
53599;DHT22;39485;45.702;11.364;2023-10-08T14:59:16;25.00;99.90
53599;DHT22;39485;45.702;11.364;2023-10-08T15:01:44;25.00;99.90
53599;DHT22;39485;45.702;11.364;2023-10-08T15:04:10;25.00;99.90
53599;DHT22;39485;45.702;11.364;2023-10-08T15:06:37;25.00;99.90
53599;DHT22;39485;45.702;11.364;2023-10-08T15:09:07;25.00;99.90
53599;DHT22;39485;45.702;11.364;2023-10-08T15:11:44;25.00;99.90
53599;DHT22;39485;45.702;11.364;2023-10-08T15:14:12;24.90;99.90
53599;DHT22;39485;45.702;11.364;2023-10-08T15:16:38;24.90;99.90
53599;DHT22;39485;45.702;11.364;2023-10-08T15:19:04;24.90;99.90
53599;DHT22;39485;45.702;11.364;2023-10-08T15:21:31;24.90;99.90
53599;DHT22;39485;45.702;11.364;2023-10-08T15:24:00;24.90;99.90
53599;DHT22;39485;45.702;11.364;2023-10-08T15:26:36;24.90;99.90
53599;DHT22;39485;45.702;11.364;2023-10-08T15:29:02;24.80;99.90
53599;DHT22;39485;45.702;11.364;2023-10-08T15:31:28;24.80;99.90
53599;DHT22;39485;45.702;11.364;2023-10-08T15:33:54;24.70;99.90
53599;DHT22;39485;45.702;11.364;2023-10-08T15:36:20;24.60;99.90
53599;DHT22;39485;45.702;11.364;2023-10-08T15:38:46;24.50;99.90
53599;DHT22;39485;45.702;11.364;2023-10-08T15:41:12;24.40;99.90
53599;DHT22;39485;45.702;11.364;2023-10-08T15:43:39;24.40;99.90
53599;DHT22;39485;45.702;11.364;2023-10-08T15:46:05;24.30;99.90
53599;DHT22;39485;45.702;11.364;2023-10-08T15:48:31;24.30;99.90
53599;DHT22;39485;45.702;11.364;2023-10-08T15:50:59;24.20;99.90
53599;DHT22;39485;45.702;11.364;2023-10-08T15:53:25;24.20;99.90